Time;durP1;ratioP1;P1;durP2;ratioP2;P2;SDS_P1;SDS_P2;PMS_P1;PMS_P2;Temp;Humidity;BMP_temperature;BMP_pressure;BME280_temperature;BME280_humidity;BME280_pressure;Samples;Min_cycle;Max_cycle;Signal;HPM_P1;HPM_P2
2022/04/17 00:00:50;;;;;;;;;;;;;;;20.46;73.01;96946.77;626852;226;65659;-65
2022/04/17 00:03:18;;;;;;;;;;;;;;;20.47;72.95;96943.02;626930;226;67145;-64
2022/04/17 00:05:45;;;;;;;;;;;;;;;20.46;72.93;96937.93;626871;226;67028;-64
2022/04/17 00:08:12;;;;;;;;;;;;;;;20.46;73.09;96941.42;626904;226;65424;-64
2022/04/17 00:10:40;;;;;;;;;;;;;;;20.46;73.00;96943.27;626899;226;66948;-64
2022/04/17 00:13:07;;;;;;;;;;;;;;;20.46;72.99;96936.09;626899;226;66694;-64
2022/04/17 00:15:35;;;;;;;;;;;;;;;20.45;73.06;96923.79;626948;226;65262;-67
2022/04/17 00:18:02;;;;;;;;;;;;;;;20.45;73.30;96928.33;626885;226;66670;-67
2022/04/17 00:20:30;;;;;;;;;;;;;;;20.45;73.15;96921.13;626901;226;64675;-67
2022/04/17 00:22:57;;;;;;;;;;;;;;;20.45;73.30;96928.33;626858;226;63314;-67
2022/04/17 00:25:25;;;;;;;;;;;;;;;20.45;73.18;96929.13;626899;226;64689;-68
2022/04/17 00:27:52;;;;;;;;;;;;;;;20.44;73.12;96927.54;626941;226;64823;-68
2022/04/17 00:30:20;;;;;;;;;;;;;;;20.44;73.27;96932.88;626894;226;63735;-68
2022/04/17 00:32:47;;;;;;;;;;;;;;;20.44;73.00;96932.88;626891;226;65373;-68
2022/04/17 00:35:15;;;;;;;;;;;;;;;20.44;72.98;96932.88;626887;226;66632;-68
2022/04/17 00:37:43;;;;;;;;;;;;;;;20.43;73.02;96933.93;626862;226;65303;-68
2022/04/17 00:40:10;;;;;;;;;;;;;;;20.44;73.11;96924.08;626894;226;65010;-68
2022/04/17 00:42:40;;;;;;;;;;;;;;;20.44;73.25;96916.86;625264;226;67329;-67
2022/04/17 00:45:07;;;;;;;;;;;;;;;20.43;73.14;96917.91;624604;226;65482;-68
2022/04/17 00:47:35;;;;;;;;;;;;;;;20.43;73.32;96917.91;624611;227;67171;-68
2022/04/17 00:50:04;;;;;;;;;;;;;;;20.43;73.41;96912.58;624606;227;67178;-68
2022/04/17 00:52:31;;;;;;;;;;;;;;;20.42;73.39;96897.64;624652;227;63288;-68
2022/04/17 00:55:01;;;;;;;;;;;;;;;20.43;73.57;96907.23;624583;227;67172;-68
2022/04/17 00:57:29;;;;;;;;;;;;;;;20.42;73.38;96908.31;624620;227;64478;-68
2022/04/17 00:59:57;;;;;;;;;;;;;;;20.42;73.41;96902.19;624611;227;65427;-68
2022/04/17 01:02:25;;;;;;;;;;;;;;;20.42;73.27;96905.65;624586;227;67076;-68
2022/04/17 01:04:52;;;;;;;;;;;;;;;20.42;73.34;96907.52;624585;227;66864;-68
2022/04/17 01:07:21;;;;;;;;;;;;;;;20.40;73.42;96902.44;624629;227;65308;-68
2022/04/17 01:09:49;;;;;;;;;;;;;;;20.41;73.30;96890.72;624608;227;67445;-69
2022/04/17 01:12:17;;;;;;;;;;;;;;;20.40;73.15;96887.22;624603;227;67003;-70
2022/04/17 01:14:45;;;;;;;;;;;;;;;20.41;73.26;96880.03;624599;227;63238;-70
2022/04/17 01:17:12;;;;;;;;;;;;;;;20.40;73.43;96883.75;624573;227;67379;-70
2022/04/17 01:19:40;;;;;;;;;;;;;;;20.41;73.41;96880.03;624644;227;67052;-70
2022/04/17 01:22:08;;;;;;;;;;;;;;;20.41;73.47;96885.38;624601;227;65248;-70
2022/04/17 01:27:22;;;;;;;;;;;;;;;20.40;73.41;96894.43;624645;227;67101;-69
2022/04/17 01:29:51;;;;;;;;;;;;;;;20.40;73.60;96889.09;624611;227;65168;-68
2022/04/17 01:32:18;;;;;;;;;;;;;;;20.39;73.51;96876.83;624653;227;67360;-68
2022/04/17 01:34:46;;;;;;;;;;;;;;;20.39;73.47;96872.28;624620;227;67042;-68
2022/04/17 01:37:22;;;;;;;;;;;;;;;20.39;73.44;96882.17;624630;227;65293;-69
2022/04/17 01:39:46;;;;;;;;;;;;;;;20.39;73.52;96877.63;624394;225;67020;-69
2022/04/17 01:42:16;;;;;;;;;;;;;;;20.38;73.56;96876.03;625775;226;67041;-69
2022/04/17 01:44:44;;;;;;;;;;;;;;;20.38;73.63;96869.91;626894;226;65287;-69
2022/04/17 01:47:11;;;;;;;;;;;;;;;20.39;73.65;96877.63;626957;226;65159;-69
2022/04/17 01:49:39;;;;;;;;;;;;;;;20.39;73.45;96876.83;626918;226;66783;-69
2022/04/17 01:52:08;;;;;;;;;;;;;;;20.38;73.54;96877.91;626901;226;62995;-66
2022/04/17 01:54:37;;;;;;;;;;;;;;;20.38;73.56;96867.23;626839;226;67231;-66
2022/04/17 01:57:05;;;;;;;;;;;;;;;20.38;73.53;96862.69;626890;226;65231;-66
2022/04/17 01:59:32;;;;;;;;;;;;;;;20.37;73.41;96863.74;626951;226;63143;-66
2022/04/17 02:02:01;;;;;;;;;;;;;;;20.38;73.48;96865.36;626898;226;67079;-66
2022/04/17 02:04:32;;;;;;;;;;;;;;;20.38;73.69;96861.89;626905;226;67108;-66
2022/04/17 02:06:57;;;;;;;;;;;;;;;20.37;73.70;96853.06;626820;225;65309;-66
2022/04/17 02:09:25;;;;;;;;;;;;;;;20.37;73.69;96852.27;626873;226;67164;-69
2022/04/17 02:11:53;;;;;;;;;;;;;;;20.37;73.61;96873.63;626937;226;64703;-69
2022/04/17 02:14:21;;;;;;;;;;;;;;;20.37;73.58;96870.95;626918;226;65362;-69
2022/04/17 02:16:48;;;;;;;;;;;;;;;20.37;73.44;96860.28;626906;226;66946;-69
2022/04/17 02:19:16;;;;;;;;;;;;;;;20.37;73.42;96854.94;626898;226;64866;-69
2022/04/17 02:21:43;;;;;;;;;;;;;;;20.36;73.57;96843.47;626865;226;63233;-69
2022/04/17 02:24:11;;;;;;;;;;;;;;;20.36;73.62;96846.14;626899;226;65295;-69
2022/04/17 02:26:38;;;;;;;;;;;;;;;20.37;73.58;96852.27;626910;226;67066;-69
2022/04/17 02:29:06;;;;;;;;;;;;;;;20.36;73.65;96861.36;626884;226;65419;-69
2022/04/17 02:31:33;;;;;;;;;;;;;;;20.36;73.87;96861.36;626904;226;64683;-69
2022/04/17 02:34:01;;;;;;;;;;;;;;;20.36;73.77;96856.02;626915;226;67049;-69
2022/04/17 02:36:28;;;;;;;;;;;;;;;20.36;73.71;96842.67;626911;226;65147;-69
2022/04/17 02:38:56;;;;;;;;;;;;;;;20.35;73.65;96849.89;626961;226;67188;-69
2022/04/17 02:41:23;;;;;;;;;;;;;;;20.35;73.76;96855.23;626419;226;64939;-69
2022/04/17 02:43:51;;;;;;;;;;;;;;;20.34;73.83;96861.62;624619;227;65134;-66
2022/04/17 02:48:48;;;;;;;;;;;;;;;20.34;73.87;96850.15;616153;225;67181;-66
2022/04/17 02:51:15;;;;;;;;;;;;;;;20.34;73.75;96858.95;624675;227;65322;-66
2022/04/17 02:53:43;;;;;;;;;;;;;;;20.34;73.88;96855.48;624628;227;67189;-66
2022/04/17 02:56:11;;;;;;;;;;;;;;;20.34;73.83;96858.95;624619;227;67021;-66
2022/04/17 02:58:38;;;;;;;;;;;;;;;20.34;73.73;96856.28;624628;227;63120;-66
2022/04/17 03:06:37;;;;;;;;;;;;;;;20.33;74.00;96846.69;624677;227;63323;-65
2022/04/17 03:09:05;;;;;;;;;;;;;;;20.34;73.86;96852.81;624608;227;66931;-65
2022/04/17 03:11:32;;;;;;;;;;;;;;;20.33;73.78;96851.23;624605;227;67483;-65
2022/04/17 03:14:00;;;;;;;;;;;;;;;20.33;73.94;96851.23;624602;227;65294;-65
2022/04/17 03:16:27;;;;;;;;;;;;;;;20.33;73.98;96843.22;624606;227;66890;-65
2022/04/17 03:18:55;;;;;;;;;;;;;;;20.32;73.89;96842.40;624668;227;66894;-65
2022/04/17 03:21:22;;;;;;;;;;;;;;;20.33;74.03;96848.56;624613;227;65157;-65
2022/04/17 03:23:50;;;;;;;;;;;;;;;20.32;74.03;96841.61;624576;227;67207;-65
2022/04/17 03:26:17;;;;;;;;;;;;;;;20.32;73.95;96838.94;624584;227;67131;-65
2022/04/17 03:28:45;;;;;;;;;;;;;;;20.32;73.79;96846.94;624636;227;63165;-65
2022/04/17 03:31:12;;;;;;;;;;;;;;;20.32;73.68;96847.73;624654;227;66692;-65
2022/04/17 03:33:40;;;;;;;;;;;;;;;20.32;73.84;96855.73;624635;227;67013;-65
2022/04/17 03:36:08;;;;;;;;;;;;;;;20.31;73.96;96838.14;624603;227;63281;-65
2022/04/17 03:38:35;;;;;;;;;;;;;;;20.32;74.15;96826.39;624594;227;65286;-68
2022/04/17 03:41:03;;;;;;;;;;;;;;;20.32;74.22;96833.59;624534;227;64979;-68
2022/04/17 03:43:30;;;;;;;;;;;;;;;20.31;74.23;96829.34;624661;227;65117;-68
2022/04/17 03:45:58;;;;;;;;;;;;;;;20.31;74.09;96835.47;624626;227;67163;-68
2022/04/17 03:48:25;;;;;;;;;;;;;;;20.31;74.09;96832.80;624613;227;67081;-68
2022/04/17 03:50:53;;;;;;;;;;;;;;;20.30;74.15;96836.55;624598;227;65235;-68
2022/04/17 03:53:20;;;;;;;;;;;;;;;20.31;74.24;96832.01;624607;227;67178;-69
2022/04/17 03:55:48;;;;;;;;;;;;;;;20.30;74.09;96830.42;624599;227;67015;-68
2022/04/17 03:58:15;;;;;;;;;;;;;;;20.30;74.00;96828.55;624663;227;65435;-68
2022/04/17 04:00:43;;;;;;;;;;;;;;;20.30;74.10;96820.55;624589;227;67225;-68
2022/04/17 04:03:12;;;;;;;;;;;;;;;20.30;74.08;96827.75;624596;227;67092;-68
2022/04/17 04:05:39;;;;;;;;;;;;;;;20.30;74.14;96815.20;624623;227;63164;-69
2022/04/17 04:08:08;;;;;;;;;;;;;;;20.30;74.44;96819.75;624553;225;64903;-69
2022/04/17 04:10:36;;;;;;;;;;;;;;;20.30;74.34;96827.75;624663;227;64919;-68
2022/04/17 04:13:04;;;;;;;;;;;;;;;20.30;74.30;96830.42;624588;227;63276;-69
2022/04/17 04:15:32;;;;;;;;;;;;;;;20.29;74.34;96829.59;624634;227;67299;-68
2022/04/17 04:18:00;;;;;;;;;;;;;;;20.29;74.54;96836.81;624626;227;66469;-69
2022/04/17 04:20:27;;;;;;;;;;;;;;;20.30;74.44;96835.76;624627;227;64199;-69
2022/04/17 04:22:57;;;;;;;;;;;;;;;20.28;74.47;96835.22;624633;227;66911;-69
2022/04/17 04:25:25;;;;;;;;;;;;;;;20.28;74.18;96833.34;624654;227;67077;-69
2022/04/17 04:30:38;;;;;;;;;;;;;;;20.28;74.13;96822.67;624643;227;66939;-69
2022/04/17 04:33:06;;;;;;;;;;;;;;;20.28;74.22;96821.88;624610;227;66822;-69
2022/04/17 04:35:34;;;;;;;;;;;;;;;20.29;74.36;96826.14;624604;227;65522;-69
2022/04/17 04:38:02;;;;;;;;;;;;;;;20.27;74.14;96822.93;624624;227;64764;-69
2022/04/17 04:40:29;;;;;;;;;;;;;;;20.27;74.19;96831.76;624616;227;67046;-69
2022/04/17 04:42:58;;;;;;;;;;;;;;;20.27;74.16;96820.27;624574;226;65348;-69
2022/04/17 04:48:12;;;;;;;;;;;;;;;20.27;74.25;96818.42;624618;227;65088;-69
2022/04/17 04:50:39;;;;;;;;;;;;;;;20.26;74.13;96808.80;624587;227;63237;-69
2022/04/17 04:53:07;;;;;;;;;;;;;;;20.26;74.14;96818.67;624639;227;65182;-69
2022/04/17 04:55:35;;;;;;;;;;;;;;;20.26;74.29;96819.47;624599;227;66992;-69
2022/04/17 04:58:02;;;;;;;;;;;;;;;20.26;74.26;96816.01;624583;227;63250;-69
2022/04/17 05:00:30;;;;;;;;;;;;;;;20.26;74.33;96814.13;624585;227;64905;-69
2022/04/17 05:02:59;;;;;;;;;;;;;;;20.26;74.05;96806.13;624626;227;67017;-70
2022/04/17 05:05:26;;;;;;;;;;;;;;;20.26;74.06;96813.34;624603;227;65446;-69
2022/04/17 05:07:54;;;;;;;;;;;;;;;20.25;74.14;96809.88;624623;227;67172;-66
2022/04/17 05:10:21;;;;;;;;;;;;;;;20.25;74.27;96806.41;624586;227;66924;-66
2022/04/17 05:12:49;;;;;;;;;;;;;;;20.25;74.42;96801.08;624583;227;65238;-66
2022/04/17 05:15:17;;;;;;;;;;;;;;;20.25;74.43;96795.74;624558;227;67225;-66
2022/04/17 05:17:44;;;;;;;;;;;;;;;20.25;74.47;96801.08;624643;227;67226;-66
2022/04/17 05:20:15;;;;;;;;;;;;;;;20.24;74.53;96797.58;624595;227;64041;-66
2022/04/17 05:22:44;;;;;;;;;;;;;;;20.25;74.50;96798.41;624569;226;68336;-69
2022/04/17 05:25:11;;;;;;;;;;;;;;;20.25;74.54;96801.08;624517;227;64613;-68
2022/04/17 05:27:39;;;;;;;;;;;;;;;20.24;74.55;96797.58;624607;227;63503;-68
2022/04/17 05:30:08;;;;;;;;;;;;;;;20.23;74.46;96793.33;624599;227;67169;-68
2022/04/17 05:32:36;;;;;;;;;;;;;;;20.24;74.54;96804.80;624634;227;64917;-68
2022/04/17 05:35:04;;;;;;;;;;;;;;;20.24;74.61;96799.45;624583;227;63181;-68
2022/04/17 05:37:31;;;;;;;;;;;;;;;20.22;74.62;96799.75;624556;227;64914;-68
2022/04/17 05:39:59;;;;;;;;;;;;;;;20.24;74.61;96799.45;624515;227;65307;-68
2022/04/17 05:42:26;;;;;;;;;;;;;;;20.24;74.61;96796.80;624409;227;63138;-68
2022/04/17 05:44:53;;;;;;;;;;;;;;;20.23;74.62;96797.88;624640;227;67168;-68
2022/04/17 05:47:23;;;;;;;;;;;;;;;20.23;74.43;96792.53;624572;227;66952;-68
2022/04/17 05:49:50;;;;;;;;;;;;;;;20.23;74.53;96801.33;624431;227;64135;-68
2022/04/17 05:52:18;;;;;;;;;;;;;;;20.23;74.53;96787.20;623862;227;67151;-65
2022/04/17 05:54:45;;;;;;;;;;;;;;;20.21;74.64;96795.46;623811;227;67020;-65
2022/04/17 05:57:13;;;;;;;;;;;;;;;20.23;74.75;96800.55;624611;227;62889;-65
2022/04/17 05:59:40;;;;;;;;;;;;;;;20.22;74.88;96791.74;624553;227;64751;-65
2022/04/17 06:02:09;;;;;;;;;;;;;;;20.21;75.18;96795.46;624528;227;64998;-65
2022/04/17 06:04:37;;;;;;;;;;;;;;;20.22;75.01;96790.95;624491;227;65323;-65
2022/04/17 06:07:04;;;;;;;;;;;;;;;20.21;75.09;96790.13;624599;227;67589;-65
2022/04/17 06:09:32;;;;;;;;;;;;;;;20.21;74.47;96794.67;624601;227;64936;-65
2022/04/17 06:11:59;;;;;;;;;;;;;;;20.20;75.34;96783.20;624588;227;65250;-65
2022/04/17 06:14:27;;;;;;;;;;;;;;;20.21;75.40;96790.13;624570;227;67007;-65
2022/04/17 06:16:56;;;;;;;;;;;;;;;20.21;75.68;96794.67;624596;225;45104;-65
2022/04/17 06:19:24;;;;;;;;;;;;;;;20.21;75.52;96789.33;624597;227;63268;-65
2022/04/17 06:21:51;;;;;;;;;;;;;;;20.22;75.45;96791.74;624651;227;67156;-65
2022/04/17 06:24:19;;;;;;;;;;;;;;;20.22;75.38;96796.28;624613;227;67194;-65
2022/04/17 06:26:48;;;;;;;;;;;;;;;20.23;75.39;96795.20;624636;227;65348;-68
2022/04/17 06:29:15;;;;;;;;;;;;;;;20.24;75.45;96788.78;624597;227;65131;-65
2022/04/17 06:31:45;;;;;;;;;;;;;;;20.23;75.10;96792.53;624572;227;66906;-65
2022/04/17 06:34:12;;;;;;;;;;;;;;;20.24;75.11;96799.45;624632;227;63154;-65
2022/04/17 06:36:40;;;;;;;;;;;;;;;20.23;75.01;96796.00;624641;227;67260;-65
2022/04/17 06:39:07;;;;;;;;;;;;;;;20.24;75.01;96794.92;624575;227;67090;-65
2022/04/17 06:41:35;;;;;;;;;;;;;;;20.25;74.86;96799.20;625168;226;66117;-65
2022/04/17 06:44:02;;;;;;;;;;;;;;;20.25;74.58;96801.08;626866;226;67068;-65
2022/04/17 06:46:30;;;;;;;;;;;;;;;20.25;74.71;96801.88;626726;226;67545;-65
2022/04/17 06:48:57;;;;;;;;;;;;;;;20.26;74.67;96810.67;626928;226;65273;-65
2022/04/17 06:51:25;;;;;;;;;;;;;;;20.26;74.74;96805.33;626855;226;67135;-65
2022/04/17 06:53:53;;;;;;;;;;;;;;;20.25;74.61;96807.20;626902;226;65279;-68
2022/04/17 06:56:21;;;;;;;;;;;;;;;20.26;74.40;96810.67;626867;226;65410;-69
2022/04/17 06:58:49;;;;;;;;;;;;;;;20.26;74.32;96808.80;626759;226;64886;-69
2022/04/17 07:01:17;;;;;;;;;;;;;;;20.26;73.94;96814.13;626944;226;64892;-68
2022/04/17 07:03:48;;;;;;;;;;;;;;;20.26;73.83;96814.13;626880;226;65507;-68
2022/04/17 07:06:15;;;;;;;;;;;;;;;20.27;73.61;96815.75;626858;226;67003;-69
2022/04/17 07:08:43;;;;;;;;;;;;;;;20.28;73.66;96811.20;626908;226;65096;-68
2022/04/17 07:11:10;;;;;;;;;;;;;;;20.27;73.32;96809.59;626894;226;63399;-68
2022/04/17 07:13:39;;;;;;;;;;;;;;;20.27;73.67;96809.59;626879;226;66808;-68
2022/04/17 07:16:07;;;;;;;;;;;;;;;20.27;73.78;96805.08;626936;226;64955;-68
2022/04/17 07:18:35;;;;;;;;;;;;;;;20.27;73.62;96810.41;626855;226;64027;-68
2022/04/17 07:21:03;;;;;;;;;;;;;;;20.27;73.62;96813.08;626905;226;65299;-68
2022/04/17 07:23:30;;;;;;;;;;;;;;;20.28;73.46;96816.55;626778;226;67034;-68
2022/04/17 07:25:58;;;;;;;;;;;;;;;20.27;73.54;96809.59;626852;226;65351;-68
2022/04/17 07:28:25;;;;;;;;;;;;;;;20.29;73.40;96812.80;626827;226;67164;-68
2022/04/17 07:30:53;;;;;;;;;;;;;;;20.29;73.46;96828.80;626789;226;67999;-68
2022/04/17 07:33:20;;;;;;;;;;;;;;;20.29;73.19;96826.14;626739;226;65306;-68
2022/04/17 07:35:48;;;;;;;;;;;;;;;20.28;73.36;96821.88;626859;226;67230;-68
2022/04/17 07:38:15;;;;;;;;;;;;;;;20.29;73.45;96816.25;626850;226;67067;-68
2022/04/17 07:40:45;;;;;;;;;;;;;;;20.30;73.58;96819.75;626922;226;65238;-68
2022/04/17 07:43:12;;;;;;;;;;;;;;;20.29;73.53;96820.80;624717;226;67275;-69
2022/04/17 07:45:39;;;;;;;;;;;;;;;20.30;73.70;96823.20;624582;227;67138;-68
2022/04/17 07:48:07;;;;;;;;;;;;;;;20.30;73.72;96825.88;624612;227;65314;-68
2022/04/17 07:50:34;;;;;;;;;;;;;;;20.30;73.62;96825.88;624598;227;67190;-68
2022/04/17 07:53:02;;;;;;;;;;;;;;;20.31;73.63;96826.67;624617;227;67143;-68
2022/04/17 07:55:32;;;;;;;;;;;;;;;20.31;73.64;96835.47;624618;227;65317;-64
2022/04/17 08:00:32;;;;;;;;;;;;;;;20.33;73.29;96835.22;624638;227;66817;-65
2022/04/17 08:04:00;;;;;;;;;;;;;;;20.32;72.79;96834.39;624617;227;67139;-65
2022/04/17 08:05:39;;;;;;;;;;;;;;;20.34;73.40;96831.47;620041;225;67026;-65
2022/04/17 08:08:09;;;;;;;;;;;;;;;20.34;72.69;96842.94;624628;227;65330;-65
2022/04/17 08:10:38;;;;;;;;;;;;;;;20.34;71.94;96844.81;624620;227;65231;-67
2022/04/17 08:13:07;;;;;;;;;;;;;;;20.35;71.32;96841.06;624613;227;64837;-69
2022/04/17 08:15:35;;;;;;;;;;;;;;;20.35;71.93;96836.55;624591;227;67143;-69
2022/04/17 08:18:02;;;;;;;;;;;;;;;20.36;71.30;96829.33;624586;227;65360;-69
2022/04/17 08:20:30;;;;;;;;;;;;;;;20.37;71.34;96834.38;624638;227;67241;-69
2022/04/17 08:22:57;;;;;;;;;;;;;;;20.38;71.13;96832.54;624641;227;64598;-69
2022/04/17 08:25:25;;;;;;;;;;;;;;;20.39;71.09;96834.12;624635;227;63188;-70
2022/04/17 08:27:53;;;;;;;;;;;;;;;20.39;71.29;96828.79;624629;227;64499;-69
2022/04/17 08:30:21;;;;;;;;;;;;;;;20.39;71.24;96831.45;624609;227;66846;-70
2022/04/17 08:32:49;;;;;;;;;;;;;;;20.40;70.71;96831.17;624599;227;65257;-69
2022/04/17 08:35:17;;;;;;;;;;;;;;;20.41;70.59;96837.33;624629;227;67191;-69
2022/04/17 08:37:45;;;;;;;;;;;;;;;20.42;70.60;96840.80;624630;227;66788;-69
2022/04/17 08:40:13;;;;;;;;;;;;;;;20.42;70.69;96838.92;624588;225;63426;-69
2022/04/17 08:42:41;;;;;;;;;;;;;;;20.43;70.78;96840.50;624605;226;67011;-69
2022/04/17 08:45:12;;;;;;;;;;;;;;;20.44;70.69;96844.80;624565;227;66970;-69
2022/04/17 08:47:41;;;;;;;;;;;;;;;20.46;70.45;96844.50;624635;227;65390;-69
2022/04/17 08:50:10;;;;;;;;;;;;;;;20.47;69.86;96840.78;624630;227;67258;-69
2022/04/17 08:52:39;;;;;;;;;;;;;;;20.47;69.89;96846.91;624584;227;65070;-69
2022/04/17 08:55:07;;;;;;;;;;;;;;;20.48;69.22;96845.04;624600;227;65300;-70
2022/04/17 08:57:34;;;;;;;;;;;;;;;20.50;69.38;96843.70;624548;227;67218;-69
2022/04/17 09:00:03;;;;;;;;;;;;;;;20.51;69.21;96839.95;624646;227;67075;-69
2022/04/17 09:02:31;;;;;;;;;;;;;;;20.52;69.61;96843.44;624611;227;65255;-69
2022/04/17 09:04:58;;;;;;;;;;;;;;;20.53;68.62;96845.86;624596;227;67050;-69
2022/04/17 09:07:27;;;;;;;;;;;;;;;20.54;69.29;96847.47;624592;227;66874;-69
2022/04/17 09:09:55;;;;;;;;;;;;;;;20.56;68.99;96847.19;624394;225;65353;-69
2022/04/17 09:12:24;;;;;;;;;;;;;;;20.57;68.52;96844.25;624625;227;64665;-69
2022/04/17 09:14:53;;;;;;;;;;;;;;;20.58;68.82;96848.52;624468;225;64474;-69
2022/04/17 09:17:22;;;;;;;;;;;;;;;20.59;68.68;96847.43;624608;227;65514;-69
2022/04/17 09:19:50;;;;;;;;;;;;;;;20.59;68.83;96850.09;624289;225;67348;-69
2022/04/17 09:22:17;;;;;;;;;;;;;;;20.62;68.62;96840.75;624556;227;67421;-69
2022/04/17 09:24:45;;;;;;;;;;;;;;;20.62;68.88;96840.75;624498;227;65270;-69
2022/04/17 09:27:12;;;;;;;;;;;;;;;20.65;68.90;96837.53;624636;227;67212;-69
2022/04/17 09:29:40;;;;;;;;;;;;;;;20.65;68.19;96826.84;624581;227;67022;-69
2022/04/17 09:32:11;;;;;;;;;;;;;;;20.67;68.27;96823.92;624556;227;63221;-69
2022/04/17 09:34:46;;;;;;;;;;;;;;;20.67;67.97;96824.71;624536;227;67203;-69
2022/04/17 09:37:15;;;;;;;;;;;;;;;20.69;67.85;96827.12;624519;227;66998;-69
2022/04/17 09:39:43;;;;;;;;;;;;;;;20.70;68.37;96823.37;624539;227;65279;-67
2022/04/17 09:42:11;;;;;;;;;;;;;;;20.70;67.70;96823.37;625689;226;65404;-67
2022/04/17 09:44:46;;;;;;;;;;;;;;;20.72;67.84;96830.04;626872;226;64912;-67
2022/04/17 09:47:12;;;;;;;;;;;;;;;20.73;67.68;96828.16;626725;225;65302;-67
2022/04/17 09:49:43;;;;;;;;;;;;;;;20.74;67.78;96835.12;626825;225;67603;-67
2022/04/17 09:52:10;;;;;;;;;;;;;;;20.75;67.61;96836.70;624089;226;67123;-67
2022/04/17 09:54:38;;;;;;;;;;;;;;;20.76;67.55;96827.61;626844;226;65429;-67
2022/04/17 09:57:05;;;;;;;;;;;;;;;20.78;67.18;96836.16;626715;226;66976;-66
2022/04/17 09:59:34;;;;;;;;;;;;;;;20.79;67.11;96840.45;626878;226;66852;-66
2022/04/17 10:02:02;;;;;;;;;;;;;;;20.79;66.99;96833.22;626390;226;63238;-67
2022/04/17 10:04:29;;;;;;;;;;;;;;;20.81;66.83;96835.61;625850;226;65244;-67
2022/04/17 10:07:02;;;;;;;;;;;;;;;20.83;67.01;96828.13;626015;226;65035;-67
2022/04/17 10:09:30;;;;;;;;;;;;;;;20.85;66.86;96831.33;626107;226;63345;-66
2022/04/17 10:11:59;;;;;;;;;;;;;;;20.86;66.15;96822.23;626066;226;64886;-66
2022/04/17 10:14:30;;;;;;;;;;;;;;;20.87;65.71;96813.16;626076;226;65875;-67
2022/04/17 10:16:58;;;;;;;;;;;;;;;20.88;66.52;96817.42;626142;226;63489;-67
2022/04/17 10:19:27;;;;;;;;;;;;;;;20.90;66.14;96822.47;626872;226;67064;-65
2022/04/17 10:21:56;;;;;;;;;;;;;;;20.91;66.72;96822.21;626798;226;67223;-65
2022/04/17 10:24:24;;;;;;;;;;;;;;;20.92;66.48;96814.98;625992;226;63070;-65
2022/04/17 10:26:52;;;;;;;;;;;;;;;20.93;65.54;96811.27;626816;226;67337;-65
2022/04/17 10:29:22;;;;;;;;;;;;;;;20.94;65.01;96812.85;626871;226;66816;-65
2022/04/17 10:32:06;;;;;;;;;;;;;;;20.96;65.54;96806.16;626880;226;65329;-66
2022/04/17 10:34:35;;;;;;;;;;;;;;;20.97;65.33;96807.75;615952;230;64709;-67
2022/04/17 10:37:07;;;;;;;;;;;;;;;20.98;65.43;96804.02;623404;225;65198;-67
2022/04/17 10:39:39;;;;;;;;;;;;;;;20.99;64.96;96800.27;626851;226;65392;-67
2022/04/17 10:42:09;;;;;;;;;;;;;;;21.01;65.33;96797.33;625702;225;64983;-65
2022/04/17 10:44:41;;;;;;;;;;;;;;;21.02;65.04;96801.59;624478;227;65153;-66
2022/04/17 10:47:06;;;;;;;;;;;;;;;21.03;65.28;96806.67;624466;225;63158;-66
2022/04/17 10:49:35;;;;;;;;;;;;;;;21.04;64.67;96802.12;624433;227;64910;-66
2022/04/17 10:52:03;;;;;;;;;;;;;;;21.05;65.86;96796.48;624247;225;67106;-66
2022/04/17 10:54:32;;;;;;;;;;;;;;;21.07;65.08;96793.55;624612;227;65450;-66
2022/04/17 10:57:00;;;;;;;;;;;;;;;21.08;64.72;96792.45;622613;225;66834;-66
2022/04/17 10:59:33;;;;;;;;;;;;;;;21.08;64.46;96786.33;624540;227;67108;-68
2022/04/17 11:02:01;;;;;;;;;;;;;;;21.09;64.44;96783.39;624613;227;63194;-69
2022/04/17 11:04:30;;;;;;;;;;;;;;;21.11;64.94;96788.44;624585;227;68257;-70
2022/04/17 11:07:09;;;;;;;;;;;;;;;21.11;64.53;96801.80;624538;227;64997;-70
2022/04/17 11:09:44;;;;;;;;;;;;;;;21.12;64.70;96800.74;624626;227;65419;-68
2022/04/17 11:12:08;;;;;;;;;;;;;;;21.14;64.58;96795.90;624409;225;67207;-68
2022/04/17 11:14:35;;;;;;;;;;;;;;;21.16;64.46;96796.42;624633;227;67105;-68
2022/04/17 11:17:12;;;;;;;;;;;;;;;21.17;64.70;96795.34;624581;227;65272;-68
2022/04/17 11:19:40;;;;;;;;;;;;;;;21.17;64.46;96792.67;624442;227;67289;-68
2022/04/17 11:22:09;;;;;;;;;;;;;;;21.17;64.38;96795.34;624605;227;67136;-69
2022/04/17 11:24:54;;;;;;;;;;;;;;;21.20;64.08;96800.16;624542;227;65768;-68
2022/04/17 11:27:41;;;;;;;;;;;;;;;21.20;64.57;96800.95;624577;227;64962;-70
2022/04/17 11:30:09;;;;;;;;;;;;;;;21.22;64.54;96797.98;624621;227;64821;-70
2022/04/17 11:32:38;;;;;;;;;;;;;;;21.21;64.20;96810.55;624644;227;65328;-68
2022/04/17 11:35:06;;;;;;;;;;;;;;;21.24;64.38;96814.55;624493;227;64990;-68
2022/04/17 11:37:34;;;;;;;;;;;;;;;21.24;64.40;96818.02;624420;227;65137;-68
2022/04/17 11:40:09;;;;;;;;;;;;;;;21.25;64.21;96824.97;624518;227;63894;-68
2022/04/17 11:42:43;;;;;;;;;;;;;;;21.27;64.17;96830.03;626025;226;67367;-68
2022/04/17 11:45:12;;;;;;;;;;;;;;;21.28;64.32;96829.77;626924;226;64387;-70
2022/04/17 11:47:40;;;;;;;;;;;;;;;21.27;63.73;96830.03;626922;226;65383;-70
2022/04/17 11:50:12;;;;;;;;;;;;;;;21.29;63.80;96825.21;626875;226;67193;-70
2022/04/17 11:52:39;;;;;;;;;;;;;;;21.30;63.79;96821.45;626728;226;67182;-67
2022/04/17 11:55:07;;;;;;;;;;;;;;;21.31;64.29;96816.90;626863;226;62932;-68
2022/04/17 11:57:36;;;;;;;;;;;;;;;21.32;64.03;96813.96;626870;226;67263;-67
2022/04/17 12:00:05;;;;;;;;;;;;;;;21.34;63.80;96816.38;626954;226;64941;-68
2022/04/17 12:02:32;;;;;;;;;;;;;;;21.35;63.53;96820.63;626866;226;64204;-68
2022/04/17 12:05:07;;;;;;;;;;;;;;;21.36;63.98;96815.02;626849;226;66787;-67
2022/04/17 12:07:35;;;;;;;;;;;;;;;21.38;63.70;96812.08;626896;226;66851;-70
2022/04/17 12:10:07;;;;;;;;;;;;;;;21.38;63.52;96814.75;626808;226;64949;-67
2022/04/17 12:12:35;;;;;;;;;;;;;;;21.38;63.78;96807.52;626869;226;67126;-70
2022/04/17 12:15:04;;;;;;;;;;;;;;;21.39;63.44;96809.14;626938;226;64955;-70
2022/04/17 12:17:33;;;;;;;;;;;;;;;21.41;63.58;96812.31;626396;226;65508;-70
2022/04/17 12:20:01;;;;;;;;;;;;;;;21.41;63.49;96804.30;626604;226;67421;-68
2022/04/17 12:22:29;;;;;;;;;;;;;;;21.42;63.82;96799.77;626898;226;65002;-68
2022/04/17 12:24:58;;;;;;;;;;;;;;;21.42;63.52;96797.89;626847;226;65085;-67
2022/04/17 12:27:26;;;;;;;;;;;;;;;21.43;63.69;96804.03;626937;226;67309;-68
2022/04/17 12:29:56;;;;;;;;;;;;;;;21.43;63.50;96791.45;626754;226;65008;-68
2022/04/17 12:32:24;;;;;;;;;;;;;;;21.47;63.60;96800.53;626764;225;65424;-70
2022/04/17 12:34:58;;;;;;;;;;;;;;;21.46;63.58;96793.56;626736;226;47990;-70
2022/04/17 12:37:32;;;;;;;;;;;;;;;21.46;63.38;96793.56;625756;225;64655;-70
2022/04/17 12:40:15;;;;;;;;;;;;;;;21.48;63.56;96785.28;626734;225;42717;-68
2022/04/17 12:42:42;;;;;;;;;;;;;;;21.47;63.44;96787.16;616205;230;67024;-68
2022/04/17 12:45:10;;;;;;;;;;;;;;;21.48;63.29;96788.75;622774;226;66862;-68
2022/04/17 12:47:39;;;;;;;;;;;;;;;21.49;63.49;96798.35;625870;226;65261;-65
2022/04/17 12:50:13;;;;;;;;;;;;;;;21.49;63.44;96798.35;625920;226;64672;-65
2022/04/17 12:52:41;;;;;;;;;;;;;;;21.50;63.40;96797.30;625915;224;66929;-66
2022/04/17 12:55:15;;;;;;;;;;;;;;;21.51;63.17;96790.06;625895;226;65117;-66
2022/04/17 12:57:43;;;;;;;;;;;;;;;21.50;63.50;96783.92;625957;226;66849;-66
2022/04/17 13:00:15;;;;;;;;;;;;;;;21.51;63.40;96784.72;625932;226;66840;-66
2022/04/17 13:02:43;;;;;;;;;;;;;;;21.53;63.23;96773.76;625842;225;65540;-66
2022/04/17 13:05:12;;;;;;;;;;;;;;;21.53;63.40;96777.22;625928;226;67196;-66
2022/04/17 13:07:41;;;;;;;;;;;;;;;21.55;63.38;96779.59;625537;226;65301;-65
2022/04/17 13:10:09;;;;;;;;;;;;;;;21.56;63.14;96773.19;625923;226;65292;-66
2022/04/17 13:12:40;;;;;;;;;;;;;;;21.55;62.88;96772.37;625942;226;66938;-66